Time,TemperatureF,DewpointF,PressureIn,WindDirection,WindDirectionDegrees,WindSpeedMPH,WindSpeedGustMPH,Humidity,HourlyPrecipIn,Conditions,Clouds,dailyrainin,SoftwareType,DateUTC
2013-02-19 00:00:00,27.0,-99.9,-100.00,North,-999,-999.0,-999.0,-999,-99.99,,,0.00,,2013-02-19 08:00:00,
2013-02-19 00:52:00,27.0,-99.9,-100.00,North,-999,-999.0,-999.0,-999,-99.99,,,0.00,,2013-02-19 08:52:00,
2013-02-19 01:00:00,26.0,26.0,-100.00,NNW,341,0.0,2.0,98,-99.99,,,0.00,,2013-02-19 09:00:00,
2013-02-19 01:53:00,26.0,26.0,-100.00,NNW,341,0.0,2.0,98,-99.99,,,0.00,,2013-02-19 09:53:00,
2013-02-19 02:00:00,28.0,27.0,-100.00,NW,321,0.0,1.0,95,-99.99,,,0.00,,2013-02-19 10:00:00,
2013-02-19 02:52:00,28.0,27.0,-100.00,NW,321,0.0,1.0,95,-99.99,,,0.00,,2013-02-19 10:52:00,
2013-02-19 03:00:00,27.0,26.0,-100.00,NW,305,0.0,1.0,97,-99.99,,,-99.99,,2013-02-19 11:00:00,
2013-02-19 03:52:00,27.0,26.0,-100.00,NW,305,0.0,1.0,97,-99.99,,,-99.99,,2013-02-19 11:52:00,
2013-02-19 04:00:00,27.0,26.0,-100.00,NNW,344,0.0,0.0,95,-99.99,,,0.00,,2013-02-19 12:00:00,
2013-02-19 04:52:00,27.0,26.0,-100.00,NNW,344,0.0,0.0,95,-99.99,,,0.00,,2013-02-19 12:52:00,
2013-02-19 05:00:00,27.0,26.0,-100.00,NNW,330,0.0,2.0,95,-99.99,,,0.00,,2013-02-19 13:00:00,
2013-02-19 05:52:00,27.0,26.0,-100.00,NNW,330,0.0,2.0,95,-99.99,,,0.00,,2013-02-19 13:52:00,
2013-02-19 06:00:00,27.0,27.0,-100.00,NE,47,0.0,1.0,97,-99.99,,,0.00,,2013-02-19 14:00:00,
2013-02-19 06:52:00,27.0,27.0,-100.00,NE,47,0.0,1.0,97,-99.99,,,0.00,,2013-02-19 14:52:00,
2013-02-19 07:00:00,27.0,26.0,-100.00,North,2,0.0,1.0,96,-99.99,,,0.00,,2013-02-19 15:00:00,
2013-02-19 07:52:00,27.0,26.0,-100.00,North,2,0.0,1.0,96,-99.99,,,0.00,,2013-02-19 15:52:00,
2013-02-19 08:00:00,28.0,27.0,-100.00,NE,41,0.0,1.0,98,-99.99,,,0.00,,2013-02-19 16:00:00,
2013-02-19 08:52:00,28.0,27.0,-100.00,NE,41,0.0,1.0,98,-99.99,,,0.00,,2013-02-19 16:52:00,
2013-02-19 09:00:00,29.0,28.0,-100.00,ENE,57,0.0,1.0,96,-99.99,,,0.00,,2013-02-19 17:00:00,
2013-02-19 09:52:00,29.0,28.0,-100.00,ENE,57,0.0,1.0,96,-99.99,,,0.00,,2013-02-19 17:52:00,
2013-02-19 10:00:00,31.0,29.0,-100.00,NE,40,0.0,3.0,90,-99.99,,,0.00,,2013-02-19 18:00:00,
2013-02-19 10:52:00,31.0,29.0,-100.00,NE,40,0.0,3.0,90,-99.99,,,0.00,,2013-02-19 18:52:00,
2013-02-19 11:00:00,33.0,29.0,-100.00,ENE,57,1.0,3.0,85,-99.99,,,0.00,,2013-02-19 19:00:00,
2013-02-19 11:52:00,33.0,29.0,-100.00,ENE,57,1.0,3.0,85,-99.99,,,0.00,,2013-02-19 19:52:00,
2013-02-19 12:00:00,33.0,28.0,-100.00,NE,54,2.0,3.0,82,-99.99,,,0.00,,2013-02-19 20:00:00,
2013-02-19 12:52:00,33.0,28.0,-100.00,NE,54,2.0,3.0,82,-99.99,,,0.00,,2013-02-19 20:52:00,
2013-02-19 13:00:00,35.0,29.0,-100.00,ENE,60,1.0,3.0,79,-99.99,,,-99.99,,2013-02-19 21:00:00,
2013-02-19 13:52:00,35.0,29.0,-100.00,ENE,60,1.0,3.0,79,-99.99,,,-99.99,,2013-02-19 21:52:00,
2013-02-19 14:00:00,34.0,30.0,-100.00,NNE,26,1.0,3.0,86,-99.99,,,-99.99,,2013-02-19 22:00:00,
2013-02-19 14:52:00,34.0,30.0,-100.00,NNE,26,1.0,3.0,86,-99.99,,,-99.99,,2013-02-19 22:52:00,
2013-02-19 15:00:00,32.0,28.0,-100.00,North,359,1.0,4.0,86,-99.99,,,0.00,,2013-02-19 23:00:00,
2013-02-19 15:52:00,32.0,28.0,-100.00,North,359,1.0,4.0,86,-99.99,,,0.00,,2013-02-19 23:52:00,
2013-02-19 16:00:00,30.0,-99.9,-100.00,North,-999,-999.0,-999.0,-999,-99.99,,,-99.99,,2013-02-20 00:00:00,
2013-02-19 16:52:00,30.0,-99.9,-100.00,North,-999,-999.0,-999.0,-999,-99.99,,,-99.99,,2013-02-20 00:52:00,
2013-02-19 17:00:00,30.0,29.0,-100.00,East,92,0.0,2.0,98,-99.99,,,-99.99,,2013-02-20 01:00:00,
2013-02-19 17:52:00,30.0,29.0,-100.00,East,92,0.0,2.0,98,-99.99,,,-99.99,,2013-02-20 01:52:00,
2013-02-19 18:00:00,28.0,28.0,-100.00,North,9,1.0,2.0,99,-99.99,,,-99.99,,2013-02-20 02:00:00,
2013-02-19 18:52:00,28.0,28.0,-100.00,North,9,1.0,2.0,99,-99.99,,,-99.99,,2013-02-20 02:52:00,
2013-02-19 19:00:00,27.0,27.0,-100.00,ENE,70,1.0,3.0,99,-99.99,,,-99.99,,2013-02-20 03:00:00,
2013-02-19 19:52:00,27.0,27.0,-100.00,ENE,70,1.0,3.0,99,-99.99,,,-99.99,,2013-02-20 03:52:00,
2013-02-19 20:00:00,27.0,26.0,-100.00,NNE,15,1.0,3.0,99,-99.99,,,0.00,,2013-02-20 04:00:00,
2013-02-19 20:52:00,27.0,26.0,-100.00,NNE,15,1.0,3.0,99,-99.99,,,0.00,,2013-02-20 04:52:00,
2013-02-19 21:00:00,26.0,26.0,-100.00,ENE,58,1.0,2.0,100,-99.99,,,0.00,,2013-02-20 05:00:00,
2013-02-19 21:52:00,26.0,26.0,-100.00,ENE,58,1.0,2.0,100,-99.99,,,0.00,,2013-02-20 05:52:00,
2013-02-19 22:00:00,24.0,23.0,-100.00,NE,48,0.0,0.0,99,-99.99,,,0.00,,2013-02-20 06:00:00,
2013-02-19 23:52:00,24.0,24.0,-100.00,NNW,347,0.0,1.0,99,-99.99,,,0.00,,2013-02-20 07:52:00,